Time;durP1;ratioP1;P1;durP2;ratioP2;P2;SDS_P1;SDS_P2;PMS_P1;PMS_P2;Temp;Humidity;BMP_temperature;BMP_pressure;BME280_temperature;BME280_humidity;BME280_pressure;Samples;Min_cycle;Max_cycle;Signal;HPM_P1;HPM_P2
2022/08/14 00:00:50;;;;;;;4.28;1.73;;;;;;;20.83;38.06;101464.06;4963193;28;20085;-77
2022/08/14 00:03:25;;;;;;;1.40;1.17;;;;;;;20.82;37.63;101459.75;4968697;28;20045;-78
2022/08/14 00:05:52;;;;;;;3.20;1.65;;;;;;;20.79;37.68;101462.59;4982518;28;20031;-79
2022/08/14 00:08:18;;;;;;;5.05;1.75;;;;;;;20.77;37.85;101469.00;4966902;28;20449;-80
2022/08/14 00:10:44;;;;;;;2.22;1.45;;;;;;;20.83;37.84;101461.41;4986649;28;20042;-79
2022/08/14 00:13:10;;;;;;;3.42;1.83;;;;;;;20.78;38.09;101460.94;4969464;28;20109;-78
2022/08/14 00:15:38;;;;;;;2.03;1.60;;;;;;;20.77;37.98;101461.88;4962957;28;20065;-77
2022/08/14 00:18:07;;;;;;;3.35;1.50;;;;;;;20.66;38.38;101464.47;4972464;28;20034;-81
2022/08/14 00:20:36;;;;;;;2.30;1.52;;;;;;;20.65;37.92;101458.31;4995779;28;20060;-80
2022/08/14 00:23:03;;;;;;;3.00;1.30;;;;;;;20.69;38.02;101464.25;4970789;28;20535;-78
2022/08/14 00:25:28;;;;;;;4.80;1.98;;;;;;;20.70;37.88;101450.00;4976474;28;20030;-79
2022/08/14 00:27:54;;;;;;;3.85;1.90;;;;;;;20.76;37.90;101454.88;4982283;28;20547;-80
2022/08/14 00:30:20;;;;;;;2.65;1.80;;;;;;;20.73;38.05;101452.47;4966942;28;20058;-77
2022/08/14 00:32:45;;;;;;;2.00;1.63;;;;;;;20.72;37.91;101458.72;4975213;28;20053;-78
2022/08/14 00:35:11;;;;;;;8.02;2.08;;;;;;;20.71;38.00;101452.56;4988205;28;20030;-78
2022/08/14 00:37:39;;;;;;;3.63;2.22;;;;;;;20.69;38.06;101449.16;4977518;28;20553;-78
2022/08/14 00:40:07;;;;;;;1.80;1.38;;;;;;;20.60;37.98;101449.00;4967537;28;20038;-79
2022/08/14 00:42:33;;;;;;;2.97;2.20;;;;;;;20.68;38.18;101446.63;4967188;28;20065;-78
2022/08/14 00:44:59;;;;;;;2.10;1.85;;;;;;;20.65;38.08;101438.88;4961666;28;20031;-80
2022/08/14 00:47:24;;;;;;;7.00;1.70;;;;;;;20.63;38.21;101440.81;4971156;28;20054;-76
2022/08/14 00:49:52;;;;;;;2.33;1.23;;;;;;;20.59;38.52;101429.56;4985096;28;20045;-78
2022/08/14 00:52:19;;;;;;;1.58;1.48;;;;;;;20.58;38.28;101440.31;4984041;28;20093;-80
2022/08/14 00:54:53;;;;;;;6.70;1.80;;;;;;;20.61;38.40;101429.44;4990748;28;20492;-78
2022/08/14 00:57:37;;;;;;;2.05;1.45;;;;;;;20.66;38.32;101427.28;4980281;28;20380;-80
2022/08/14 01:00:14;;;;;;;2.63;1.50;;;;;;;20.63;38.11;101423.06;4962664;28;20521;-77
2022/08/14 01:02:42;;;;;;;2.95;1.65;;;;;;;20.64;38.58;101418.59;4944142;28;20050;-79
2022/08/14 01:05:22;;;;;;;3.30;1.83;;;;;;;20.66;38.34;101424.63;4967053;28;20513;-79
2022/08/14 01:07:53;;;;;;;2.20;1.50;;;;;;;20.61;38.14;101421.47;4973130;28;20038;-76
2022/08/14 01:10:19;;;;;;;2.70;1.80;;;;;;;20.68;38.37;101420.06;4978401;28;20046;-77
2022/08/14 01:12:47;;;;;;;5.00;1.80;;;;;;;20.72;38.25;101418.88;4983943;28;20057;-78
2022/08/14 01:15:15;;;;;;;3.92;1.67;;;;;;;20.77;38.10;101407.91;4974386;28;20038;-78
2022/08/14 01:23:13;;;;;;;3.22;1.60;;;;;;;20.67;38.28;101402.44;4972710;28;20061;-79
2022/08/14 01:25:38;;;;;;;2.65;1.77;;;;;;;20.76;38.23;101399.09;4968704;28;20062;-77
2022/08/14 01:28:05;;;;;;;6.70;2.10;;;;;;;20.73;38.49;101396.69;4966875;28;20090;-77
2022/08/14 01:30:31;;;;;;;4.43;2.00;;;;;;;20.76;38.29;101391.13;4971297;28;20041;-78
2022/08/14 01:32:57;;;;;;;3.55;1.85;;;;;;;20.65;38.51;101393.75;4978774;28;20043;-78
2022/08/14 01:35:22;;;;;;;5.13;1.77;;;;;;;20.65;38.70;101389.28;4985793;28;20034;-78
2022/08/14 01:37:48;;;;;;;2.50;1.60;;;;;;;20.68;38.51;101394.34;4969533;28;20073;-77
2022/08/14 01:40:14;;;;;;;4.80;1.75;;;;;;;20.65;38.65;101399.06;4973638;28;20037;-80
2022/08/14 01:42:43;;;;;;;5.13;1.67;;;;;;;20.67;38.70;101386.50;4982102;28;20177;-76
2022/08/14 01:45:12;;;;;;;2.38;1.83;;;;;;;20.53;39.17;101391.03;4971877;28;20788;-78
2022/08/14 01:47:39;;;;;;;5.85;1.73;;;;;;;20.60;38.96;101398.56;4962497;28;20050;-78
2022/08/14 01:50:08;;;;;;;3.30;1.98;;;;;;;20.54;39.17;101395.38;4982761;28;20038;-80
2022/08/14 01:52:37;;;;;;;4.63;2.08;;;;;;;20.49;39.48;101389.56;4976081;28;20581;-76
2022/08/14 01:55:08;;;;;;;4.00;1.75;;;;;;;20.51;39.25;101379.69;4982319;28;20030;-77
2022/08/14 01:57:36;;;;;;;2.65;1.92;;;;;;;20.47;39.53;101380.88;4960920;28;20517;-80
2022/08/14 02:00:08;;;;;;;3.70;2.00;;;;;;;20.53;39.23;101380.41;4982487;28;20045;-79
2022/08/14 02:02:34;;;;;;;7.80;2.53;;;;;;;20.51;39.70;101382.34;4961413;28;20062;-78
2022/08/14 02:05:01;;;;;;;2.33;1.73;;;;;;;20.50;39.40;101377.97;4980575;28;20073;-80
2022/08/14 02:07:31;;;;;;;5.88;1.95;;;;;;;20.46;39.84;101378.31;4972701;28;20495;-78
2022/08/14 02:09:57;;;;;;;3.60;2.30;;;;;;;20.42;39.98;101374.22;4948688;28;20096;-80
2022/08/14 02:12:23;;;;;;;4.80;1.70;;;;;;;20.40;39.90;101369.03;4967425;28;20466;-79
2022/08/14 02:14:49;;;;;;;3.92;2.63;;;;;;;20.36;40.35;101372.84;4961828;28;20129;-78
2022/08/14 02:17:14;;;;;;;4.15;1.48;;;;;;;20.45;39.94;101364.22;4950706;28;20130;-77
2022/08/14 02:19:40;;;;;;;2.42;1.65;;;;;;;20.35;40.26;101365.00;4966572;28;20386;-78
2022/08/14 02:22:05;;;;;;;4.82;2.55;;;;;;;20.25;40.48;101367.50;4963902;28;20551;-78
2022/08/14 02:24:31;;;;;;;1.98;1.67;;;;;;;20.17;40.91;101361.84;4953182;28;20066;-78
2022/08/14 02:26:59;;;;;;;3.55;2.45;;;;;;;20.26;40.75;101358.56;4964238;28;20061;-78
2022/08/14 02:29:27;;;;;;;4.00;2.22;;;;;;;20.27;40.68;101368.22;4968572;28;20564;-78
2022/08/14 02:31:56;;;;;;;4.53;2.25;;;;;;;20.30;40.52;101357.38;4959790;28;20641;-77
2022/08/14 02:34:28;;;;;;;5.75;2.08;;;;;;;20.33;40.44;101359.81;4968235;28;20069;-79
2022/08/14 02:37:01;;;;;;;2.47;2.00;;;;;;;20.34;40.54;101358.84;4980569;28;20042;-79
2022/08/14 02:39:28;;;;;;;3.65;2.15;;;;;;;20.31;40.41;101356.44;4981535;28;20035;-80
2022/08/14 02:41:53;;;;;;;2.75;2.28;;;;;;;20.29;40.68;101345.06;4973736;28;20921;-77
2022/08/14 02:44:21;;;;;;;4.53;1.88;;;;;;;20.26;40.60;101345.28;4970103;28;20029;-78
2022/08/14 02:46:48;;;;;;;1.92;1.80;;;;;;;20.27;40.51;101347.00;4971801;28;20124;-78
2022/08/14 02:49:15;;;;;;;2.60;1.90;;;;;;;20.31;40.42;101344.00;4967481;28;20510;-79
2022/08/14 02:51:41;;;;;;;2.60;1.73;;;;;;;20.28;40.85;101344.25;4976248;28;20041;-78
2022/08/14 02:54:08;;;;;;;2.75;2.35;;;;;;;20.26;40.82;101339.97;4981178;28;20042;-77
2022/08/14 02:56:37;;;;;;;3.08;2.30;;;;;;;20.23;40.99;101340.22;4980941;28;20065;-78
2022/08/14 02:59:05;;;;;;;4.38;2.42;;;;;;;20.25;40.63;101335.66;4972601;28;20675;-80
2022/08/14 03:01:32;;;;;;;3.05;2.60;;;;;;;20.26;40.57;101339.97;4969706;28;20062;-78
2022/08/14 03:03:58;;;;;;;2.33;1.67;;;;;;;20.23;40.68;101329.59;4963121;28;20122;-78
2022/08/14 03:06:24;;;;;;;3.22;1.55;;;;;;;20.36;40.85;101327.72;4986223;28;20773;-79
2022/08/14 03:08:51;;;;;;;3.28;1.95;;;;;;;20.38;40.54;101324.97;4981932;28;20113;-77
2022/08/14 03:11:18;;;;;;;4.38;2.90;;;;;;;20.34;40.54;101319.03;4969895;28;20030;-79
2022/08/14 03:13:46;;;;;;;2.85;2.35;;;;;;;20.27;40.50;101315.16;4964542;28;20050;-81
2022/08/14 03:16:15;;;;;;;4.93;2.33;;;;;;;20.27;40.93;101310.69;4984783;28;20045;-79
2022/08/14 03:18:43;;;;;;;4.05;2.05;;;;;;;20.30;40.84;101304.28;4974965;28;20042;-77
2022/08/14 03:21:12;;;;;;;5.72;2.63;;;;;;;20.25;40.94;101311.75;4985791;28;20384;-79
2022/08/14 03:23:39;;;;;;;3.42;2.25;;;;;;;20.13;41.27;101311.69;4984974;28;20144;-80
2022/08/14 03:26:08;;;;;;;2.72;2.35;;;;;;;20.00;41.30;101302.94;4965801;28;20127;-79
2022/08/14 03:28:33;;;;;;;4.78;2.10;;;;;;;20.02;41.30;101306.31;4977255;28;20046;-78
2022/08/14 03:30:59;;;;;;;3.60;1.90;;;;;;;19.99;41.24;101301.22;4984580;28;20629;-78
2022/08/14 03:33:26;;;;;;;2.85;2.65;;;;;;;20.08;41.04;101305.88;4988653;28;20042;-78
2022/08/14 03:35:53;;;;;;;2.38;2.17;;;;;;;19.99;41.37;101295.91;4983056;28;20093;-80
2022/08/14 03:38:19;;;;;;;2.90;2.40;;;;;;;19.90;41.77;101299.25;4987477;28;20046;-81
2022/08/14 03:40:46;;;;;;;2.28;2.08;;;;;;;19.83;41.83;101290.03;4968119;28;20038;-79
2022/08/14 03:43:12;;;;;;;3.00;1.63;;;;;;;19.82;41.80;101291.00;4985875;28;20038;-76
2022/08/14 03:45:39;;;;;;;4.10;2.17;;;;;;;19.83;41.87;101287.41;4977233;28;20504;-78
2022/08/14 03:48:15;;;;;;;4.50;2.05;;;;;;;19.81;41.99;101276.03;4986606;28;20781;-79
2022/08/14 03:50:43;;;;;;;3.00;2.15;;;;;;;19.82;41.87;101277.75;4984500;28;20133;-79
2022/08/14 03:53:10;;;;;;;3.35;2.15;;;;;;;19.77;41.99;101274.56;4965076;28;20511;-81
2022/08/14 03:55:37;;;;;;;3.13;2.13;;;;;;;19.76;42.33;101271.09;4957760;28;20046;-79
2022/08/14 03:58:05;;;;;;;2.95;2.53;;;;;;;19.74;42.20;101275.66;4963425;28;20179;-79
2022/08/14 04:00:31;;;;;;;4.13;1.77;;;;;;;19.74;42.38;101265.03;4960951;28;20039;-79
2022/08/14 04:02:56;;;;;;;2.35;2.03;;;;;;;19.68;42.29;101266.34;4969697;28;20665;-81
2022/08/14 04:05:22;;;;;;;11.85;2.53;;;;;;;19.55;42.75;101265.53;4971679;28;20105;-77
2022/08/14 04:07:47;;;;;;;5.43;2.53;;;;;;;19.61;42.61;101270.38;4998123;28;20049;-80
2022/08/14 04:10:13;;;;;;;5.50;2.88;;;;;;;19.52;42.86;101271.00;4967258;28;20070;-81
2022/08/14 04:12:39;;;;;;;2.83;2.08;;;;;;;19.53;43.05;101274.53;5002187;28;20038;-80
2022/08/14 04:15:05;;;;;;;4.03;2.53;;;;;;;19.47;43.00;101270.50;4986388;28;20034;-78
2022/08/14 04:17:32;;;;;;;3.50;2.95;;;;;;;19.48;42.92;101267.75;4989055;28;20735;-80
2022/08/14 04:20:02;;;;;;;7.93;2.83;;;;;;;19.59;42.84;101266.16;4985075;28;20058;-80
2022/08/14 04:22:30;;;;;;;5.35;2.83;;;;;;;19.56;42.71;101264.56;4966804;28;20074;-80
2022/08/14 04:24:57;;;;;;;4.97;2.70;;;;;;;19.39;43.50;101270.19;4959907;28;20043;-79
2022/08/14 04:27:23;;;;;;;4.55;2.35;;;;;;;19.43;43.28;101271.69;4961475;28;20053;-78
2022/08/14 04:29:49;;;;;;;2.75;1.83;;;;;;;19.47;43.20;101263.41;4973402;28;20097;-78
2022/08/14 04:32:15;;;;;;;2.15;1.95;;;;;;;19.52;43.17;101257.75;4979540;28;20676;-78
2022/08/14 04:34:40;;;;;;;3.17;2.50;;;;;;;19.43;43.07;101250.47;4974552;28;20133;-81
2022/08/14 04:45:24;;;;;;;9.15;2.70;;;;;;;19.46;43.75;101244.97;4998403;28;20030;-79
2022/08/14 04:50:35;;;;;;;4.28;2.92;;;;;;;19.50;43.50;101238.47;5001506;28;20045;-76
2022/08/14 04:53:01;;;;;;;5.97;2.65;;;;;;;19.53;43.67;101243.56;4969845;28;20065;-78
2022/08/14 04:55:28;;;;;;;2.97;2.60;;;;;;;19.57;43.62;101233.59;4970418;28;20030;-81
2022/08/14 04:57:53;;;;;;;3.20;2.60;;;;;;;19.58;43.76;101233.50;4968673;28;20050;-79
2022/08/14 05:00:19;;;;;;;3.58;3.28;;;;;;;19.62;43.50;101234.13;4983844;28;20037;-81
2022/08/14 05:02:44;;;;;;;4.45;3.47;;;;;;;19.73;43.37;101233.34;4985426;28;20493;-81
2022/08/14 05:05:10;;;;;;;3.75;2.78;;;;;;;19.78;43.37;101228.53;4987743;28;20064;-78
2022/08/14 05:07:36;;;;;;;7.80;2.95;;;;;;;19.75;43.44;101226.09;4986527;28;20056;-81
2022/08/14 05:10:03;;;;;;;4.78;2.92;;;;;;;19.69;43.39;101214.16;4988218;28;20038;-79
2022/08/14 05:12:30;;;;;;;2.78;2.50;;;;;;;19.82;43.20;101214.09;4984825;28;20125;-81
2022/08/14 05:14:55;;;;;;;3.45;2.78;;;;;;;19.98;43.00;101219.94;4985755;28;20062;-79
2022/08/14 05:17:24;;;;;;;4.50;2.55;;;;;;;20.08;42.69;101220.97;4985711;28;20049;-80
2022/08/14 05:19:50;;;;;;;5.35;3.10;;;;;;;20.07;42.67;101226.38;4967435;28;20042;-76
2022/08/14 05:22:15;;;;;;;4.60;2.85;;;;;;;20.04;42.83;101222.16;4981936;28;20056;-81
2022/08/14 05:24:41;;;;;;;7.70;3.40;;;;;;;20.19;42.16;101219.28;4967133;28;20106;-77
2022/08/14 05:27:08;;;;;;;3.50;2.35;;;;;;;20.48;42.52;101222.41;4964808;28;20497;-78
2022/08/14 05:29:34;;;;;;;3.47;2.92;;;;;;;20.62;41.74;101214.25;4959738;28;20122;-78
2022/08/14 05:32:06;;;;;;;2.45;2.15;;;;;;;21.00;41.37;101217.53;4955802;28;20064;-78
2022/08/14 05:34:32;;;;;;;;;;;;;;;21.81;39.47;101218.13;4964491;28;20031;-79
2022/08/14 05:36:59;;;;;;;4.38;2.05;;;;;;;22.66;37.41;101217.19;4966189;28;19956;-80
2022/08/14 05:39:25;;;;;;;4.22;2.75;;;;;;;23.38;35.37;101217.06;4983799;28;20066;-79
2022/08/14 05:41:50;;;;;;;3.17;2.70;;;;;;;22.58;37.54;101210.72;4968468;28;20089;-78
2022/08/14 05:44:16;;;;;;;5.53;2.53;;;;;;;22.54;37.11;101216.44;4967081;28;20392;-79
2022/08/14 05:46:41;;;;;;;5.88;2.85;;;;;;;23.30;35.99;101208.94;4989629;28;20084;-79
2022/08/14 05:49:07;;;;;;;6.43;2.83;;;;;;;23.87;34.34;101209.16;4983281;28;20866;-78
2022/08/14 05:51:33;;;;;;;5.03;2.72;;;;;;;23.26;35.62;101212.81;4968836;28;20022;-78
2022/08/14 05:53:59;;;;;;;3.25;2.95;;;;;;;23.21;35.81;101209.72;4967399;28;20126;-77
2022/08/14 05:56:24;;;;;;;2.88;2.63;;;;;;;22.52;36.83;101213.91;4965786;28;20114;-78
2022/08/14 05:58:52;;;;;;;5.45;2.67;;;;;;;21.78;38.34;101211.25;4982031;28;20133;-78
2022/08/14 06:01:18;;;;;;;3.30;3.00;;;;;;;21.61;39.17;101212.63;4967932;28;20027;-79
2022/08/14 06:03:43;;;;;;;3.97;3.13;;;;;;;21.52;39.47;101205.41;4984504;28;20132;-78
2022/08/14 06:06:09;;;;;;;3.92;3.10;;;;;;;21.54;39.70;101216.78;4969630;28;20077;-77
2022/08/14 06:08:34;;;;;;;4.82;3.13;;;;;;;23.12;36.54;101215.84;4986327;28;20635;-78
2022/08/14 06:11:04;;;;;;;10.15;2.88;;;;;;;24.61;33.68;101221.00;4966486;28;20092;-76
2022/08/14 06:13:34;;;;;;;3.05;2.25;;;;;;;25.93;31.69;101215.34;4967397;28;20204;-77
2022/08/14 06:15:59;;;;;;;5.28;2.72;;;;;;;27.10;29.58;101212.25;4979116;28;20049;-76
2022/08/14 06:18:25;;;;;;;7.82;3.10;;;;;;;27.42;28.22;101214.19;4971743;28;20078;-79
2022/08/14 06:20:53;;;;;;;5.20;2.28;;;;;;;26.43;30.37;101209.38;4971718;28;20564;-79
2022/08/14 06:23:18;;;;;;;5.07;3.22;;;;;;;25.19;32.75;101212.75;4980609;28;20046;-77
2022/08/14 06:25:44;;;;;;;7.45;2.75;;;;;;;23.85;34.50;101210.25;4983426;28;20043;-78
2022/08/14 06:28:18;;;;;;;4.15;3.20;;;;;;;22.78;36.83;101206.38;4971877;28;20043;-76
2022/08/14 06:30:43;;;;;;;3.35;3.05;;;;;;;22.27;38.20;101201.84;4950819;28;20034;-78
2022/08/14 06:33:09;;;;;;;4.38;3.05;;;;;;;22.09;38.31;101209.56;4964483;28;21375;-78
2022/08/14 06:35:35;;;;;;;3.40;3.10;;;;;;;21.79;39.38;101204.94;4950714;28;20167;-78
2022/08/14 06:38:00;;;;;;;5.30;2.60;;;;;;;21.58;39.83;101206.69;4960044;28;20130;-80
2022/08/14 06:40:34;;;;;;;5.32;3.60;;;;;;;21.47;40.14;101204.91;4948933;28;20512;-79
2022/08/14 06:43:06;;;;;;;6.22;3.38;;;;;;;21.40;40.60;101209.88;4982991;28;20113;-79
2022/08/14 06:45:34;;;;;;;3.55;3.25;;;;;;;21.34;40.99;101211.22;4967742;28;20085;-78
2022/08/14 06:48:01;;;;;;;4.78;3.08;;;;;;;21.36;40.91;101197.81;4982677;28;20039;-77
2022/08/14 06:50:28;;;;;;;4.07;3.03;;;;;;;21.40;40.50;101203.69;4991715;28;20038;-79
2022/08/14 06:52:54;;;;;;;5.35;3.15;;;;;;;21.49;40.55;101202.97;4986438;28;20133;-77
2022/08/14 06:55:20;;;;;;;3.70;3.40;;;;;;;21.65;40.81;101197.28;4987305;28;20044;-78
2022/08/14 06:57:48;;;;;;;4.32;3.15;;;;;;;21.87;39.86;101202.50;4985570;28;20046;-79
2022/08/14 07:00:18;;;;;;;3.92;3.53;;;;;;;22.32;39.05;101201.47;4988343;28;20030;-76
2022/08/14 07:08:18;;;;;;;3.92;2.90;;;;;;;23.65;36.94;101212.06;4976251;28;20034;-77
2022/08/14 07:10:50;;;;;;;7.38;3.58;;;;;;;23.42;36.93;101207.81;4986500;28;20034;-78
2022/08/14 07:13:17;;;;;;;8.15;6.03;;;;;;;22.80;38.54;101206.22;4986563;28;20066;-79
2022/08/14 07:15:47;;;;;;;10.68;6.97;;;;;;;22.95;38.38;101204.03;4950552;28;20050;-76
2022/08/14 07:18:13;;;;;;;7.35;3.95;;;;;;;23.34;38.14;101212.16;4968269;28;20208;-79
2022/08/14 07:20:40;;;;;;;7.22;3.92;;;;;;;23.29;37.94;101204.56;4964527;28;20750;-78
2022/08/14 07:23:09;;;;;;;5.10;3.40;;;;;;;23.23;37.32;101198.91;4965161;28;20094;-75
2022/08/14 07:25:41;;;;;;;6.18;3.22;;;;;;;23.04;37.49;101200.56;4953752;28;20042;-78
2022/08/14 07:28:16;;;;;;;5.20;3.10;;;;;;;22.93;37.80;101209.50;4966441;28;20039;-76
2022/08/14 07:30:42;;;;;;;6.20;3.08;;;;;;;23.22;36.98;101208.75;4967223;28;20816;-79
2022/08/14 07:33:09;;;;;;;4.00;3.60;;;;;;;23.53;36.26;101211.38;4951090;28;20049;-77
2022/08/14 07:35:36;;;;;;;3.78;3.30;;;;;;;23.77;35.65;101211.81;4966933;28;20746;-78
2022/08/14 07:38:04;;;;;;;3.28;2.97;;;;;;;23.91;35.72;101217.72;4974020;28;20248;-78
2022/08/14 07:40:29;;;;;;;5.15;2.97;;;;;;;23.68;35.61;101217.97;4970792;28;20136;-78
2022/08/14 07:42:55;;;;;;;3.83;3.55;;;;;;;23.91;35.96;101212.41;4984782;28;20519;-78
2022/08/14 07:45:21;;;;;;;6.35;3.35;;;;;;;24.18;35.43;101217.84;4983295;28;20031;-79
2022/08/14 07:47:46;;;;;;;3.25;3.00;;;;;;;24.63;34.69;101219.88;4975754;28;20034;-78
2022/08/14 07:50:18;;;;;;;9.45;3.85;;;;;;;24.43;34.48;101212.91;4989477;28;20751;-77
2022/08/14 07:52:45;;;;;;;9.18;3.92;;;;;;;23.86;35.77;101220.81;4960874;28;20436;-78
2022/08/14 07:55:12;;;;;;;5.65;3.10;;;;;;;23.53;36.21;101217.53;4955913;28;20035;-79
2022/08/14 07:57:42;;;;;;;3.15;2.90;;;;;;;23.58;36.26;101219.78;4972890;28;20057;-77
2022/08/14 08:00:12;;;;;;;4.03;3.72;;;;;;;23.48;36.34;101217.13;4999318;28;20042;-75
2022/08/14 08:02:44;;;;;;;7.95;3.10;;;;;;;23.36;37.10;101219.03;4980163;28;20070;-77
2022/08/14 08:05:11;;;;;;;3.92;3.63;;;;;;;23.19;37.11;101217.03;4976185;28;20045;-76
2022/08/14 08:07:39;;;;;;;4.63;4.22;;;;;;;23.13;36.68;101212.22;4968303;28;20129;-74
2022/08/14 08:10:31;;;;;;;6.60;4.70;;;;;;;23.01;36.36;101208.84;4992719;28;20103;-75
2022/08/14 08:13:03;;;;;;;4.38;3.97;;;;;;;22.87;37.13;101212.69;4973524;28;20086;-75
2022/08/14 08:15:32;;;;;;;6.55;3.85;;;;;;;23.15;36.65;101215.59;4979988;28;20034;-77
2022/08/14 08:18:03;;;;;;;4.07;3.72;;;;;;;23.56;36.47;101221.75;4983031;28;20069;-77
2022/08/14 08:20:30;;;;;;;;;;;;;;;23.83;36.09;101213.91;4985077;28;20038;-76
2022/08/14 08:22:57;;;;;;;4.03;3.60;;;;;;;24.23;35.76;101212.06;4970736;28;20010;-76
2022/08/14 08:25:25;;;;;;;4.43;3.75;;;;;;;24.30;35.15;101207.81;4959972;28;20039;-77
2022/08/14 08:28:17;;;;;;;4.90;3.42;;;;;;;24.50;35.27;101205.97;4958119;28;20757;-78
2022/08/14 08:31:11;;;;;;;6.47;3.85;;;;;;;24.21;35.48;101196.22;4985963;28;20046;-78
2022/08/14 08:33:37;;;;;;;4.50;3.97;;;;;;;24.38;34.96;101199.09;4966172;28;20081;-78
2022/08/14 08:36:10;;;;;;;7.53;4.00;;;;;;;24.34;34.59;101203.06;4945902;28;20133;-78
2022/08/14 08:38:35;;;;;;;4.07;3.78;;;;;;;24.44;34.87;101201.25;4967613;28;20055;-77
2022/08/14 08:41:02;;;;;;;4.43;3.28;;;;;;;24.65;35.15;101201.03;4967901;28;20038;-78
2022/08/14 08:43:33;;;;;;;6.85;3.30;;;;;;;24.31;35.26;101203.34;4974779;28;20066;-78
2022/08/14 08:46:02;;;;;;;4.35;3.75;;;;;;;24.86;34.54;101187.41;4976976;28;20038;-78
2022/08/14 08:48:46;;;;;;;4.47;4.07;;;;;;;25.32;33.12;101193.66;4974130;28;20121;-79
2022/08/14 08:51:25;;;;;;;6.10;3.13;;;;;;;25.12;33.99;101186.75;4983775;28;20718;-77
2022/08/14 08:53:57;;;;;;;4.53;3.63;;;;;;;25.14;33.66;101177.59;4966537;28;20058;-79
2022/08/14 08:56:44;;;;;;;8.13;3.60;;;;;;;25.93;32.70;101176.00;4998391;28;20068;-79
2022/08/14 08:59:29;;;;;;;3.45;3.15;;;;;;;26.62;32.35;101177.00;4967203;28;20702;-78
2022/08/14 09:01:59;;;;;;;4.60;3.47;;;;;;;26.51;32.06;101171.91;4996227;28;20034;-77
2022/08/14 09:04:32;;;;;;;4.30;3.90;;;;;;;25.84;32.72;101166.25;4967201;28;20035;-76
2022/08/14 09:06:58;;;;;;;4.57;3.70;;;;;;;25.78;32.89;101162.34;4985556;28;20034;-78
2022/08/14 09:09:25;;;;;;;6.00;3.80;;;;;;;25.98;32.64;101170.22;4957972;28;20038;-77
2022/08/14 09:11:55;;;;;;;13.13;4.38;;;;;;;26.40;32.65;101172.16;4954290;28;20126;-80
2022/08/14 09:14:26;;;;;;;7.18;3.55;;;;;;;26.98;32.02;101170.63;4945006;28;20033;-78
2022/08/14 09:16:52;;;;;;;5.00;3.85;;;;;;;27.50;31.04;101160.53;4944651;28;20054;-77
2022/08/14 09:19:18;;;;;;;3.97;3.22;;;;;;;28.08;29.46;101168.59;4947008;28;20039;-79
2022/08/14 09:21:45;;;;;;;4.25;3.88;;;;;;;29.03;28.15;101155.19;4962702;28;20038;-79
2022/08/14 09:24:11;;;;;;;4.22;3.80;;;;;;;29.52;27.72;101152.19;4966310;28;20046;-74
2022/08/14 09:26:38;;;;;;;3.45;3.15;;;;;;;29.34;28.09;101147.09;4964102;28;20048;-76
2022/08/14 09:29:05;;;;;;;6.38;5.78;;;;;;;29.36;28.14;101141.53;4979118;28;20412;-78
2022/08/14 09:31:33;;;;;;;5.70;4.28;;;;;;;29.32;27.83;101134.84;4981196;28;20042;-78
2022/08/14 09:34:28;;;;;;;4.43;4.03;;;;;;;28.64;28.18;101131.88;4961648;28;20045;-75
2022/08/14 09:37:30;;;;;;;3.85;3.50;;;;;;;28.94;28.48;101123.97;4954816;28;20085;-77
2022/08/14 09:40:07;;;;;;;4.03;3.72;;;;;;;29.33;27.76;101120.38;4939181;28;20039;-78
2022/08/14 09:42:38;;;;;;;5.20;4.05;;;;;;;29.77;26.95;101122.38;4962728;28;20053;-78
2022/08/14 09:45:35;;;;;;;5.07;4.57;;;;;;;29.39;27.52;101108.88;4966680;28;20093;-76
2022/08/14 09:48:01;;;;;;;6.15;4.50;;;;;;;28.83;27.73;101108.22;4957829;28;20043;-77
2022/08/14 09:50:30;;;;;;;11.07;4.57;;;;;;;29.11;27.98;101114.81;4953866;28;20042;-79
2022/08/14 09:53:02;;;;;;;6.00;4.32;;;;;;;29.33;27.69;101113.16;4979736;28;20038;-80
2022/08/14 09:55:34;;;;;;;7.55;4.30;;;;;;;29.52;27.23;101102.88;4966021;28;20047;-77
2022/08/14 09:58:19;;;;;;;4.75;3.55;;;;;;;29.01;28.37;101099.88;4972760;28;20054;-75
2022/08/14 10:00:49;;;;;;;4.55;4.15;;;;;;;29.15;27.81;101101.84;4958118;28;20044;-77
2022/08/14 10:03:32;;;;;;;4.47;3.85;;;;;;;29.18;27.69;101092.56;4984931;28;20046;-77
2022/08/14 10:06:18;;;;;;;7.50;4.35;;;;;;;28.77;28.17;101098.16;4982810;28;20413;-78
2022/08/14 10:09:02;;;;;;;4.30;4.00;;;;;;;28.81;28.43;101089.56;4966540;28;20512;-77
2022/08/14 10:11:33;;;;;;;5.50;5.00;;;;;;;28.80;28.65;101087.06;4982859;28;20092;-79
2022/08/14 10:14:17;;;;;;;4.90;4.50;;;;;;;29.13;27.87;101077.78;4969904;28;20046;-80
2022/08/14 10:16:49;;;;;;;4.53;4.18;;;;;;;29.43;28.55;101072.50;4963881;28;20453;-79
2022/08/14 10:19:17;;;;;;;7.72;4.88;;;;;;;30.48;27.06;101070.72;4980445;28;20486;-78
2022/08/14 10:21:55;;;;;;;4.38;3.97;;;;;;;30.13;26.73;101068.66;4997682;28;20082;-77
2022/08/14 10:24:46;;;;;;;5.22;4.47;;;;;;;29.94;26.09;101075.38;4964481;28;20043;-78
2022/08/14 10:27:24;;;;;;;5.53;5.03;;;;;;;29.01;27.78;101073.81;4973347;28;20057;-76
2022/08/14 10:29:59;;;;;;;5.32;4.50;;;;;;;29.07;27.54;101073.09;4966297;28;20628;-74
2022/08/14 10:32:26;;;;;;;8.02;4.40;;;;;;;29.27;27.55;101061.88;4985081;28;20695;-76
2022/08/14 10:35:06;;;;;;;5.80;5.22;;;;;;;29.22;27.84;101062.44;4959553;28;20400;-76
2022/08/14 10:37:47;;;;;;;8.00;4.63;;;;;;;29.72;27.28;101060.16;4982634;28;20702;-79
2022/08/14 10:40:24;;;;;;;12.68;4.65;;;;;;;29.49;27.44;101055.63;4983231;28;20134;-80
2022/08/14 10:42:50;;;;;;;6.45;5.10;;;;;;;29.51;27.28;101052.75;4977470;28;20125;-77
2022/08/14 10:45:20;;;;;;;4.90;4.38;;;;;;;30.05;26.98;101051.72;4964025;28;20465;-78
2022/08/14 10:47:47;;;;;;;6.90;4.75;;;;;;;29.69;26.62;101044.38;4979144;28;20101;-77
2022/08/14 10:50:14;;;;;;;4.90;4.50;;;;;;;29.41;26.88;101042.22;4984706;28;20061;-79
2022/08/14 10:52:40;;;;;;;8.75;5.05;;;;;;;28.80;27.74;101049.44;4964959;28;20088;-78
2022/08/14 10:55:18;;;;;;;8.18;5.05;;;;;;;28.20;28.44;101035.59;4963190;28;20108;-79
2022/08/14 10:57:51;;;;;;;5.72;4.95;;;;;;;28.74;28.47;101035.66;4982407;28;20094;-75
2022/08/14 11:00:25;;;;;;;5.68;3.95;;;;;;;29.46;27.12;101023.69;4980069;28;20041;-78
2022/08/14 11:03:00;;;;;;;4.50;4.10;;;;;;;29.42;26.91;101027.75;4983636;28;20046;-78
2022/08/14 11:05:38;;;;;;;4.88;4.47;;;;;;;29.60;27.08;101015.84;4980661;28;20038;-76
2022/08/14 11:08:03;;;;;;;8.73;4.95;;;;;;;30.10;26.17;101027.75;4976455;28;20035;-78
2022/08/14 11:10:38;;;;;;;5.13;4.72;;;;;;;30.39;25.76;101027.69;4962145;28;20035;-79
2022/08/14 11:13:03;;;;;;;6.25;4.88;;;;;;;30.34;25.59;101021.22;4973119;28;20452;-78
2022/08/14 11:15:29;;;;;;;6.78;4.35;;;;;;;30.85;25.07;101006.84;4967840;28;20149;-77
2022/08/14 11:17:55;;;;;;;6.95;4.65;;;;;;;31.09;24.77;101011.88;4964027;28;20051;-78
2022/08/14 11:20:26;;;;;;;4.38;4.05;;;;;;;31.29;24.42;101009.31;4940842;28;20035;-79
2022/08/14 11:22:55;;;;;;;6.60;5.03;;;;;;;30.45;24.99;101015.31;4979743;28;20088;-77
2022/08/14 11:25:23;;;;;;;5.15;4.65;;;;;;;30.08;25.52;101000.97;4984461;28;20868;-77
2022/08/14 11:27:50;;;;;;;8.25;4.47;;;;;;;30.04;25.69;101009.59;4987962;28;20054;-78
2022/08/14 11:30:27;;;;;;;5.72;5.10;;;;;;;29.85;26.12;101005.63;4985983;28;20533;-78
2022/08/14 11:32:55;;;;;;;5.35;4.95;;;;;;;30.74;25.88;100992.00;4970665;28;20045;-76
2022/08/14 11:35:23;;;;;;;6.45;4.38;;;;;;;31.06;25.17;100998.75;4988550;28;20034;-78
2022/08/14 11:37:55;;;;;;;7.13;4.78;;;;;;;30.57;25.50;100999.50;4995145;28;20585;-77
2022/08/14 11:40:23;;;;;;;4.97;4.43;;;;;;;30.59;25.46;100992.88;4992856;28;20032;-76
2022/08/14 11:42:54;;;;;;;9.48;4.78;;;;;;;30.76;25.13;100980.00;4970834;28;20074;-75
2022/08/14 11:45:25;;;;;;;5.78;5.13;;;;;;;30.49;24.95;100978.00;4984924;28;20034;-77
2022/08/14 11:47:53;;;;;;;6.30;4.72;;;;;;;30.23;25.44;100981.28;4989767;28;20664;-77
2022/08/14 11:50:32;;;;;;;5.63;5.13;;;;;;;30.14;25.75;100973.28;5004812;28;20038;-79
2022/08/14 11:53:01;;;;;;;5.68;5.15;;;;;;;30.52;25.72;100981.16;4966174;28;20054;-78
2022/08/14 11:55:33;;;;;;;5.03;4.57;;;;;;;30.79;24.79;100962.56;4997770;28;20034;-78
2022/08/14 11:58:04;;;;;;;5.75;5.15;;;;;;;30.49;25.58;100960.00;4973591;28;20114;-78